Time;durP1;ratioP1;P1;durP2;ratioP2;P2;SDS_P1;SDS_P2;PMS_P1;PMS_P2;Temp;Humidity;BMP_temperature;BMP_pressure;BME280_temperature;BME280_humidity;BME280_pressure;Samples;Min_cycle;Max_cycle;Signal;HPM_P1;HPM_P2
2021/08/11 04:16:55;;;;;;;7.43;5.13;;;;;;;14.08;98.88;99076.75;5205363;23;20420;-69
2021/08/11 04:19:20;;;;;;;7.18;4.88;;;;;;;14.04;98.46;99072.53;4916936;29;20040;-77
2021/08/11 04:21:45;;;;;;;7.05;4.93;;;;;;;14.05;98.85;99073.38;4916657;29;20507;-70
2021/08/11 04:24:11;;;;;;;9.80;4.68;;;;;;;14.16;98.46;99073.91;4916890;29;20405;-75
2021/08/11 04:26:36;;;;;;;5.35;4.82;;;;;;;14.17;98.42;99079.97;4916785;29;20039;-72
2021/08/11 04:29:01;;;;;;;7.28;4.75;;;;;;;14.21;98.16;99076.41;4916725;29;20032;-72
2021/08/11 04:31:26;;;;;;;7.78;4.50;;;;;;;14.27;98.10;99071.03;4930950;23;20071;-74
2021/08/11 04:33:52;;;;;;;6.03;4.72;;;;;;;14.28;97.93;99062.31;4916484;29;20035;-73
2021/08/11 04:36:17;;;;;;;8.65;4.60;;;;;;;14.25;97.73;99059.78;4931286;29;20043;-73
2021/08/11 04:38:42;;;;;;;6.63;4.80;;;;;;;14.20;98.41;99069.47;4916686;29;20091;-73
2021/08/11 04:41:08;;;;;;;7.35;4.90;;;;;;;14.22;98.42;99070.31;4916253;29;20082;-73
2021/08/11 04:43:33;;;;;;;9.57;5.32;;;;;;;14.28;98.32;99067.53;4916629;29;20082;-74
2021/08/11 04:45:58;;;;;;;9.68;4.63;;;;;;;14.23;98.27;99074.63;4916464;29;20031;-74
2021/08/11 04:48:24;;;;;;;8.60;4.47;;;;;;;14.22;97.95;99078.13;4915957;29;20521;-74
2021/08/11 04:50:49;;;;;;;6.20;4.63;;;;;;;14.24;98.05;99073.72;4914982;29;20051;-74
2021/08/11 04:53:14;;;;;;;9.05;4.95;;;;;;;14.36;97.60;99081.22;4914981;29;20043;-74
2021/08/11 04:55:40;;;;;;;5.90;4.85;;;;;;;14.44;96.73;99079.22;4915681;29;20028;-74
2021/08/11 04:58:05;;;;;;;8.50;4.95;;;;;;;14.50;96.41;99084.28;4916122;29;20031;-74
2021/08/11 05:00:30;;;;;;;6.97;4.50;;;;;;;14.60;95.39;99085.75;4915067;29;20059;-74
2021/08/11 05:02:56;;;;;;;8.88;5.00;;;;;;;14.62;95.10;99091.75;4915792;29;20032;-74
2021/08/11 05:05:23;;;;;;;7.78;4.63;;;;;;;14.72;94.27;99088.88;4916111;29;20066;-74
2021/08/11 05:07:48;;;;;;;6.63;4.47;;;;;;;14.63;94.63;99088.25;4916550;29;20036;-74
2021/08/11 05:10:16;;;;;;;10.95;4.75;;;;;;;14.73;94.31;99090.59;4916028;29;20115;-74
2021/08/11 05:12:41;;;;;;;6.80;4.15;;;;;;;14.86;93.66;99089.31;4914964;29;20020;-74
2021/08/11 05:15:07;;;;;;;10.48;4.70;;;;;;;14.89;93.86;99097.03;4916085;29;20043;-74
2021/08/11 05:17:32;;;;;;;5.50;4.68;;;;;;;14.93;93.80;99090.81;4914731;29;20091;-74
2021/08/11 05:19:58;;;;;;;8.20;4.90;;;;;;;14.91;93.42;99095.25;4915909;29;20024;-74
2021/08/11 05:22:23;;;;;;;9.02;5.03;;;;;;;15.04;92.87;99096.59;4915589;29;20090;-74
2021/08/11 05:24:49;;;;;;;6.75;4.38;;;;;;;15.12;92.48;99093.72;4915863;29;20027;-74
2021/08/11 05:27:15;;;;;;;8.15;4.32;;;;;;;15.11;92.47;99102.47;4930844;29;20020;-74
2021/08/11 05:29:45;;;;;;;32.83;4.85;;;;;;;15.26;91.74;99098.50;4916002;29;20370;-74
2021/08/11 05:32:12;;;;;;;;;;;;;;;15.14;92.04;99100.63;4915829;29;20389;-74
2021/08/11 05:34:37;;;;;;;8.75;4.82;;;;;;;15.14;92.03;99108.44;4915654;29;20387;-74
2021/08/11 05:37:02;;;;;;;7.80;4.85;;;;;;;15.14;92.54;99103.22;4915905;29;20032;-74
2021/08/11 05:39:28;;;;;;;12.13;5.28;;;;;;;15.08;92.97;99100.78;4915643;29;20052;-74
2021/08/11 05:41:54;;;;;;;10.63;4.50;;;;;;;15.13;92.67;99101.53;4915606;29;20063;-74
2021/08/11 05:44:19;;;;;;;7.53;5.28;;;;;;;15.17;92.44;99097.88;4915641;29;20044;-74
2021/08/11 05:46:45;;;;;;;8.27;5.10;;;;;;;15.26;92.53;99101.13;4915843;29;20565;-74
2021/08/11 05:49:11;;;;;;;11.57;5.43;;;;;;;15.47;91.95;99095.19;4915554;29;20425;-74
2021/08/11 05:51:37;;;;;;;6.63;4.80;;;;;;;15.70;91.35;99099.69;4915407;29;20546;-74
2021/08/11 05:54:03;;;;;;;5.57;4.30;;;;;;;15.92;89.64;99092.00;4915525;29;20055;-74
2021/08/11 05:56:29;;;;;;;6.50;4.00;;;;;;;16.10;88.68;99086.13;4915877;29;20439;-74
2021/08/11 05:58:54;;;;;;;6.95;3.90;;;;;;;16.43;87.68;99093.66;4915681;29;20063;-74
2021/08/11 06:01:21;;;;;;;7.75;4.45;;;;;;;16.66;85.60;99095.41;4915473;29;20031;-74
2021/08/11 06:03:46;;;;;;;7.40;4.00;;;;;;;16.60;85.68;99095.66;4915414;29;20028;-74
2021/08/11 06:06:12;;;;;;;6.10;4.30;;;;;;;16.75;85.01;99099.50;4917227;29;20050;-74
2021/08/11 06:08:37;;;;;;;6.82;4.22;;;;;;;16.74;84.38;99103.03;4919214;29;20091;-74
2021/08/11 06:11:02;;;;;;;7.03;4.40;;;;;;;16.80;85.31;99100.16;4917912;29;20028;-74
2021/08/11 06:13:28;;;;;;;7.18;4.63;;;;;;;17.00;84.38;99099.41;4919176;29;20024;-74
2021/08/11 06:15:53;;;;;;;7.60;4.55;;;;;;;17.27;82.49;99105.31;4919140;29;20031;-74
2021/08/11 06:18:19;;;;;;;5.07;4.53;;;;;;;17.38;82.41;99101.34;4919232;29;20028;-74
2021/08/11 06:20:44;;;;;;;6.85;4.28;;;;;;;17.41;82.24;99101.22;4918944;29;20111;-74
2021/08/11 06:23:09;;;;;;;9.27;4.07;;;;;;;17.63;81.54;99111.66;4918774;29;20068;-74
2021/08/11 06:25:35;;;;;;;8.90;4.00;;;;;;;17.82;79.77;99110.94;4919256;29;20578;-74
2021/08/11 06:28:00;;;;;;;5.75;3.97;;;;;;;17.97;80.27;99110.28;4924174;29;20039;-74
2021/08/11 06:30:25;;;;;;;4.15;3.45;;;;;;;18.24;79.00;99103.00;4937797;29;20039;-74
2021/08/11 06:32:51;;;;;;;7.10;3.80;;;;;;;18.41;78.89;99100.47;4928470;29;20066;-74
2021/08/11 06:35:16;;;;;;;6.75;3.55;;;;;;;18.36;77.37;99106.84;4924162;29;20028;-74
2021/08/11 06:37:44;;;;;;;6.90;4.00;;;;;;;18.84;76.33;99100.31;4918809;29;20024;-74
2021/08/11 06:40:10;;;;;;;9.88;3.97;;;;;;;19.18;75.23;99108.31;4918909;29;20390;-74
2021/08/11 06:42:35;;;;;;;5.20;3.38;;;;;;;19.23;75.51;99111.56;4917320;29;20172;-74
2021/08/11 06:45:00;;;;;;;4.82;3.40;;;;;;;19.63;73.65;99104.41;4918747;29;20051;-74
2021/08/11 06:47:25;;;;;;;10.15;3.45;;;;;;;19.57;73.84;99107.28;4918591;29;20562;-74
2021/08/11 06:49:51;;;;;;;6.80;3.90;;;;;;;19.86;72.12;99112.91;4921486;29;20028;-74
2021/08/11 06:52:16;;;;;;;6.65;3.88;;;;;;;19.23;73.95;99116.81;4937107;29;20023;-74
2021/08/11 06:54:42;;;;;;;4.60;3.40;;;;;;;19.69;73.53;99109.38;4937627;29;20198;-74
2021/08/11 06:57:07;;;;;;;7.32;3.33;;;;;;;20.00;71.78;99108.66;4937368;29;20551;-74
2021/08/11 06:59:32;;;;;;;5.30;3.72;;;;;;;20.33;70.39;99115.75;4937802;29;20038;-74
2021/08/11 07:01:57;;;;;;;4.20;3.45;;;;;;;20.46;70.50;99111.53;4933562;29;20028;-74
2021/08/11 07:04:23;;;;;;;4.28;2.90;;;;;;;20.62;68.61;99116.84;4926094;29;20095;-74
2021/08/11 07:06:48;;;;;;;7.40;3.47;;;;;;;20.19;70.83;99108.56;4918188;29;20024;-74
2021/08/11 07:09:14;;;;;;;6.63;3.30;;;;;;;19.57;73.22;99115.19;4918444;29;20028;-74
2021/08/11 07:11:39;;;;;;;8.60;3.97;;;;;;;20.70;69.16;99112.03;4918171;29;20024;-74
2021/08/11 07:14:05;;;;;;;6.47;3.22;;;;;;;20.35;69.29;99115.66;4918113;29;20481;-74
2021/08/11 07:16:30;;;;;;;9.80;3.53;;;;;;;20.50;69.22;99114.88;4917695;29;20067;-74
2021/08/11 07:18:58;;;;;;;7.53;3.50;;;;;;;20.53;68.57;99112.94;4916813;29;20024;-74
2021/08/11 07:21:23;;;;;;;6.75;3.60;;;;;;;19.92;70.70;99121.38;4932545;29;20485;-74
2021/08/11 07:23:49;;;;;;;6.57;3.25;;;;;;;19.49;72.04;99115.59;4937018;29;20038;-74
2021/08/11 07:26:17;;;;;;;6.78;3.30;;;;;;;19.61;72.89;99116.78;4936931;29;20030;-74
2021/08/11 07:28:42;;;;;;;8.75;3.15;;;;;;;19.48;72.59;99116.47;4937170;29;20067;-79
2021/08/11 07:31:08;;;;;;;11.35;3.40;;;;;;;19.52;73.00;99117.19;4936470;29;20036;-79
2021/08/11 07:33:33;;;;;;;6.82;3.80;;;;;;;19.52;73.17;99112.78;4924284;29;20128;-79
2021/08/11 07:35:58;;;;;;;9.73;3.28;;;;;;;19.74;72.51;99112.63;4917740;29;20561;-79
2021/08/11 07:38:24;;;;;;;8.70;3.72;;;;;;;19.55;72.75;99111.78;4916442;29;20596;-79
2021/08/11 07:40:49;;;;;;;9.23;3.60;;;;;;;19.61;73.56;99102.78;4916379;29;20067;-79
2021/08/11 07:43:14;;;;;;;5.90;3.58;;;;;;;19.87;72.83;99098.84;4917369;29;20031;-79
2021/08/11 07:45:40;;;;;;;5.03;3.00;;;;;;;20.30;71.62;99094.84;4916648;29;20032;-80
2021/08/11 07:48:05;;;;;;;6.75;3.42;;;;;;;21.19;67.87;99101.44;4917918;29;20087;-80
2021/08/11 07:50:33;;;;;;;6.13;3.05;;;;;;;22.76;62.71;99096.50;4924071;29;20527;-80
2021/08/11 07:52:59;;;;;;;6.07;3.30;;;;;;;24.45;57.11;99088.06;4935083;29;20016;-80
2021/08/11 07:55:25;;;;;;;4.43;2.80;;;;;;;25.83;52.83;99084.22;4935115;29;20035;-80
2021/08/11 07:57:51;;;;;;;5.32;2.58;;;;;;;27.37;48.63;99080.00;4935160;29;20124;-80
2021/08/11 08:00:19;;;;;;;6.82;3.22;;;;;;;26.68;48.75;99082.03;4936262;29;20034;-81
2021/08/11 08:02:44;;;;;;;3.60;2.88;;;;;;;27.58;47.71;99092.50;4934261;29;20023;-80
2021/08/11 08:05:11;;;;;;;4.57;3.03;;;;;;;27.82;45.98;99090.47;4929976;29;20385;-80
2021/08/11 08:07:36;;;;;;;6.50;2.58;;;;;;;27.10;47.87;99088.41;4936239;29;20115;-81
2021/08/11 08:10:02;;;;;;;3.78;2.35;;;;;;;28.86;43.50;99075.28;4936147;29;20114;-80
2021/08/11 08:12:28;;;;;;;9.15;2.40;;;;;;;28.60;43.92;99078.44;4934709;29;20027;-81
2021/08/11 08:14:53;;;;;;;4.78;2.60;;;;;;;29.96;41.86;99066.13;4936082;29;20035;-80
2021/08/11 08:17:19;;;;;;;6.05;2.58;;;;;;;28.73;43.87;99074.72;4936099;29;20031;-81
2021/08/11 08:19:44;;;;;;;6.68;2.65;;;;;;;31.09;39.53;99075.00;4935880;29;20023;-80
2021/08/11 08:22:10;;;;;;;3.63;2.10;;;;;;;32.48;36.97;99074.34;4935582;29;20038;-80
2021/08/11 08:24:35;;;;;;;4.90;2.35;;;;;;;33.34;34.64;99071.47;4935817;29;20123;-80
2021/08/11 08:27:02;;;;;;;5.82;2.70;;;;;;;32.20;35.86;99079.00;4935839;29;20028;-80
2021/08/11 08:29:27;;;;;;;11.63;6.95;;;;;;;32.28;36.87;99079.06;4935033;29;20086;-80
2021/08/11 08:31:53;;;;;;;5.45;2.67;;;;;;;33.15;35.75;99071.75;4932606;29;20131;-80
2021/08/11 08:34:18;;;;;;;7.05;2.80;;;;;;;31.63;36.37;99074.06;4923029;29;20028;-80
2021/08/11 08:36:44;;;;;;;4.00;2.40;;;;;;;32.85;34.39;99070.47;4916606;29;20028;-80
2021/08/11 08:39:09;;;;;;;7.38;2.63;;;;;;;33.43;34.16;99075.88;4915262;29;20027;-74
2021/08/11 08:41:35;;;;;;;5.13;2.50;;;;;;;34.18;33.43;99070.31;4916340;29;20028;-74
2021/08/11 08:44:01;;;;;;;4.65;3.20;;;;;;;35.20;31.93;99076.69;4916682;29;20043;-74
2021/08/11 08:46:27;;;;;;;4.82;2.75;;;;;;;36.14;30.65;99076.47;4917240;29;20035;-74
2021/08/11 08:48:53;;;;;;;6.35;2.35;;;;;;;36.15;29.50;99078.16;4918760;29;20047;-74
2021/08/11 08:51:22;;;;;;;3.67;2.47;;;;;;;35.51;29.89;99078.53;4922181;29;20024;-74
2021/08/11 08:53:47;;;;;;;;;;;;;;;34.35;32.57;99076.50;4931989;29;20028;-74
2021/08/11 08:56:13;;;;;;;4.75;2.38;;;;;;;35.33;31.01;99076.09;4916314;29;20410;-74
2021/08/11 08:58:39;;;;;;;4.05;2.40;;;;;;;33.40;34.36;99076.16;4916158;29;20020;-74
2021/08/11 09:01:05;;;;;;;6.00;1.95;;;;;;;35.16;31.62;99069.16;4928178;29;20027;-74
2021/08/11 09:03:30;;;;;;;3.72;1.88;;;;;;;35.52;30.71;99070.25;4926450;29;20493;-74
2021/08/11 09:05:56;;;;;;;6.22;2.00;;;;;;;35.76;31.58;99071.06;4922348;29;20516;-74
2021/08/11 09:08:21;;;;;;;4.18;2.17;;;;;;;36.78;29.74;99071.38;4930399;29;20027;-74
2021/08/11 09:10:46;;;;;;;6.45;1.85;;;;;;;37.72;28.61;99071.41;4925672;29;20027;-74
2021/08/11 09:13:22;;;;;;;5.03;1.87;;;;;;;38.11;27.67;99067.34;4934719;29;20307;-74
2021/08/11 09:15:54;;;;;;;2.88;2.20;;;;;;;37.44;27.41;99071.34;4933461;29;20286;-74
2021/08/11 09:18:27;;;;;;;6.82;2.10;;;;;;;35.32;30.33;99071.72;4920940;29;20067;-74
2021/08/11 09:21:03;;;;;;;3.13;2.20;;;;;;;36.69;29.40;99072.50;4918850;29;20051;-74
2021/08/11 09:23:40;;;;;;;5.60;2.30;;;;;;;34.32;31.88;99068.75;4919422;29;20032;-74
2021/08/11 09:26:14;;;;;;;6.72;2.42;;;;;;;34.34;32.43;99074.00;4931530;29;20083;-74
2021/08/11 09:28:45;;;;;;;4.38;2.58;;;;;;;35.33;30.62;99064.47;4924356;29;20027;-79
2021/08/11 09:31:29;;;;;;;4.43;2.38;;;;;;;36.38;29.60;99064.59;4921535;29;20496;-79
2021/08/11 09:33:58;;;;;;;2.42;2.10;;;;;;;36.46;28.97;99062.66;4923458;29;20024;-79
2021/08/11 09:36:24;;;;;;;4.68;2.20;;;;;;;37.58;28.38;99056.09;4922414;29;20028;-79
2021/08/11 09:39:08;;;;;;;11.68;2.63;;;;;;;37.53;27.81;99067.47;4924443;29;20047;-79
2021/08/11 09:41:34;;;;;;;3.08;2.13;;;;;;;37.33;28.52;99059.16;4922641;29;20150;-79
2021/08/11 09:44:10;;;;;;;4.50;2.58;;;;;;;38.51;27.82;99053.03;4931049;29;20104;-79
2021/08/11 09:46:38;;;;;;;4.53;2.28;;;;;;;37.82;26.89;99052.97;4923830;29;20035;-80
2021/08/11 09:49:17;;;;;;;3.63;2.30;;;;;;;38.77;25.96;99055.03;4922690;29;20107;-79
2021/08/11 09:52:12;;;;;;;5.30;2.50;;;;;;;38.31;26.70;99052.09;4915735;29;21166;-79
2021/08/11 09:54:38;;;;;;;3.85;2.47;;;;;;;38.44;26.55;99049.47;4921159;29;20035;-78
2021/08/11 09:57:03;;;;;;;6.03;2.38;;;;;;;37.56;27.37;99059.78;4922583;29;20079;-79
2021/08/11 09:59:29;;;;;;;3.75;2.10;;;;;;;35.87;30.05;99051.75;4929259;29;20485;-79
2021/08/11 10:02:14;;;;;;;8.73;2.53;;;;;;;36.28;29.35;99054.06;4918263;29;20028;-79
2021/08/11 10:04:41;;;;;;;4.47;2.55;;;;;;;32.91;34.96;99062.63;4917751;29;20024;-79
2021/08/11 10:07:08;;;;;;;6.60;2.70;;;;;;;32.39;35.51;99060.03;4927749;29;20027;-79
2021/08/11 10:09:34;;;;;;;4.55;2.42;;;;;;;34.92;32.62;99054.75;4918463;29;20024;-79
2021/08/11 10:11:59;;;;;;;6.53;2.70;;;;;;;36.79;28.30;99051.44;4930647;29;20478;-79
2021/08/11 10:14:27;;;;;;;6.30;2.38;;;;;;;33.73;32.40;99065.47;4922038;29;20052;-79
2021/08/11 10:16:55;;;;;;;4.18;2.38;;;;;;;35.95;30.10;99062.50;4922556;29;20083;-79
2021/08/11 10:19:28;;;;;;;4.20;2.55;;;;;;;36.85;27.68;99056.09;4928035;29;20465;-79
2021/08/11 10:21:53;;;;;;;4.32;2.10;;;;;;;38.23;25.79;99055.75;4931208;29;20482;-79
2021/08/11 10:24:19;;;;;;;6.20;2.33;;;;;;;38.65;25.93;99058.53;4921344;29;20028;-79
2021/08/11 10:26:48;;;;;;;4.70;2.65;;;;;;;37.58;26.73;99061.50;4924662;29;20525;-79
2021/08/11 10:29:14;;;;;;;4.53;2.40;;;;;;;36.32;28.46;99054.53;4927041;29;20059;-79
2021/08/11 10:31:40;;;;;;;5.43;2.22;;;;;;;33.94;31.47;99063.16;4950529;23;20099;-77
2021/08/11 10:34:07;;;;;;;3.47;2.20;;;;;;;37.17;27.97;99053.97;4921969;29;20024;-72
2021/08/11 10:36:32;;;;;;;4.90;2.22;;;;;;;34.10;32.05;99051.50;4922936;29;20042;-73
2021/08/11 10:39:00;;;;;;;2.65;2.20;;;;;;;35.06;30.12;99052.34;4922913;29;20104;-73
2021/08/11 10:41:30;;;;;;;3.28;2.10;;;;;;;34.98;30.45;99039.78;4913300;29;20124;-73
2021/08/11 10:43:57;;;;;;;4.20;2.35;;;;;;;33.94;32.73;99047.00;4912003;29;20033;-71
2021/08/11 10:46:34;;;;;;;3.70;2.30;;;;;;;32.92;33.07;99048.19;4902680;29;20032;-73
2021/08/11 10:49:04;;;;;;;4.25;2.13;;;;;;;31.18;36.76;99058.00;4903591;29;20024;-73
2021/08/11 10:51:44;;;;;;;5.07;2.42;;;;;;;34.62;30.72;99045.66;4912052;29;20055;-73
2021/08/11 10:54:11;;;;;;;3.90;2.42;;;;;;;33.31;32.68;99039.53;4904202;29;20055;-73
2021/08/11 10:56:57;;;;;;;3.47;2.20;;;;;;;33.65;31.91;99047.47;4909951;29;20055;-78
2021/08/11 10:59:22;;;;;;;3.55;2.08;;;;;;;33.48;33.77;99041.28;4913556;29;20504;-78
2021/08/11 11:01:48;;;;;;;4.03;2.60;;;;;;;34.86;30.12;99047.38;4902802;29;20048;-73
2021/08/11 11:04:40;;;;;;;4.13;2.45;;;;;;;36.69;27.38;99040.09;4905266;29;20478;-78
2021/08/11 11:07:09;;;;;;;5.07;2.53;;;;;;;36.10;28.30;99035.53;4911433;29;20031;-78
2021/08/11 11:09:35;;;;;;;4.60;2.20;;;;;;;36.98;27.64;99029.25;4902474;29;20024;-80
2021/08/11 11:12:15;;;;;;;6.43;2.53;;;;;;;36.74;27.17;99029.56;4914298;29;20029;-76
2021/08/11 11:14:57;;;;;;;14.02;6.22;;;;;;;37.24;26.96;99027.88;4906670;29;20036;-77
2021/08/11 11:17:26;;;;;;;10.48;7.47;;;;;;;37.99;26.02;99027.28;4903784;29;20039;-77
2021/08/11 11:20:04;;;;;;;5.18;2.25;;;;;;;36.42;27.82;99022.69;4916920;29;20032;-79
2021/08/11 11:22:53;;;;;;;3.83;2.35;;;;;;;35.29;28.47;99027.09;4910158;29;20037;-82
2021/08/11 11:25:19;;;;;;;2.63;2.40;;;;;;;33.86;30.94;99027.31;4912687;29;20043;-77
2021/08/11 11:27:44;;;;;;;4.00;2.30;;;;;;;33.69;31.66;99029.16;4900618;29;20040;-76
2021/08/11 11:30:13;;;;;;;5.97;2.72;;;;;;;32.35;34.40;99021.13;4912369;29;20029;-79
2021/08/11 11:32:40;;;;;;;2.92;2.60;;;;;;;33.07;32.93;99015.34;4904789;29;20291;-76
2021/08/11 11:35:23;;;;;;;4.18;2.70;;;;;;;31.75;34.43;99018.38;4910108;29;20028;-76
2021/08/11 11:38:09;;;;;;;10.35;2.95;;;;;;;33.15;32.19;99018.03;4899813;29;20385;-82
2021/08/11 11:40:56;;;;;;;12.45;2.90;;;;;;;34.45;30.00;99007.19;4905710;29;20393;-82
2021/08/11 11:43:26;;;;;;;5.55;2.50;;;;;;;35.93;28.64;99010.56;4898571;29;20712;-80
2021/08/11 11:45:52;;;;;;;3.08;2.30;;;;;;;36.64;27.39;99016.34;4914169;29;20517;-78
2021/08/11 11:48:17;;;;;;;3.90;2.35;;;;;;;37.48;26.33;99021.25;4904373;29;20035;-80
2021/08/11 11:50:49;;;;;;;4.15;2.92;;;;;;;37.38;26.10;99027.00;4917269;29;20024;-82
2021/08/11 11:53:26;;;;;;;3.40;3.10;;;;;;;36.68;27.73;99011.41;4902839;29;20124;-79
2021/08/11 11:55:53;;;;;;;10.47;2.70;;;;;;;35.18;29.22;99013.22;4914040;29;20490;-80
2021/08/11 11:58:24;;;;;;;7.53;2.40;;;;;;;35.89;28.36;99003.84;4904352;29;20024;-81
2021/08/11 12:01:03;;;;;;;2.60;2.40;;;;;;;35.00;29.07;99006.25;4907028;29;20029;-79
2021/08/11 12:03:35;;;;;;;3.45;2.47;;;;;;;34.86;29.21;99009.66;4904986;29;20084;-76
2021/08/11 12:06:00;;;;;;;4.28;2.60;;;;;;;33.36;31.00;99002.25;4901824;29;20103;-78
2021/08/11 12:08:25;;;;;;;3.47;2.60;;;;;;;32.49;33.30;99001.75;4910214;29;20071;-79
2021/08/11 12:11:09;;;;;;;12.73;3.00;;;;;;;29.11;41.36;99015.28;4900827;29;20025;-82
2021/08/11 12:13:47;;;;;;;4.55;3.05;;;;;;;27.54;43.82;99016.50;4909030;29;20020;-77
2021/08/11 12:16:15;;;;;;;8.35;2.95;;;;;;;27.02;46.12;99018.97;4911805;29;20527;-77
2021/08/11 12:18:44;;;;;;;4.28;2.78;;;;;;;27.42;45.72;99016.56;4906804;29;20039;-79
2021/08/11 12:21:10;;;;;;;6.80;2.90;;;;;;;27.28;46.63;99016.03;4903893;29;20453;-77
2021/08/11 12:23:36;;;;;;;6.88;3.33;;;;;;;27.14;46.62;99017.19;4913480;29;20059;-80
2021/08/11 12:26:12;;;;;;;3.65;2.60;;;;;;;27.37;45.00;99016.13;4896631;29;20085;-78
2021/08/11 12:28:40;;;;;;;6.78;2.90;;;;;;;28.07;43.94;99013.78;4906289;29;20087;-82
2021/08/11 12:31:12;;;;;;;5.57;2.92;;;;;;;28.85;42.46;99014.91;4904303;29;20040;-82
2021/08/11 12:33:44;;;;;;;7.90;3.28;;;;;;;29.15;42.39;99005.97;4905808;29;20031;-82
2021/08/11 12:36:13;;;;;;;8.27;2.85;;;;;;;28.51;42.56;99017.06;4902392;29;20110;-79
2021/08/11 12:38:40;;;;;;;7.80;4.03;;;;;;;28.14;43.84;99015.78;4907826;29;20038;-79
2021/08/11 12:41:15;;;;;;;6.22;3.10;;;;;;;27.79;44.42;99005.50;4909511;29;20032;-82
2021/08/11 12:43:41;;;;;;;10.35;5.60;;;;;;;28.29;42.73;99002.94;4900614;29;20458;-78
2021/08/11 12:46:08;;;;;;;8.68;3.22;;;;;;;28.73;43.01;99006.19;4916563;29;20051;-78
2021/08/11 12:48:35;;;;;;;4.43;3.00;;;;;;;28.87;42.13;99003.13;4908063;29;20080;-80
2021/08/11 12:51:04;;;;;;;9.93;3.20;;;;;;;28.46;42.90;98997.97;4908777;29;20028;-78
2021/08/11 12:53:31;;;;;;;6.20;3.13;;;;;;;28.48;43.20;99007.53;4908307;29;20083;-79
2021/08/11 12:56:11;;;;;;;6.97;3.42;;;;;;;28.88;42.34;99007.50;4911672;29;20438;-82
2021/08/11 12:59:05;;;;;;;7.95;3.13;;;;;;;28.25;43.05;99006.84;4905504;29;20032;-78
2021/08/11 13:01:41;;;;;;;10.05;3.47;;;;;;;27.68;44.32;99008.19;4899493;29;20025;-77
2021/08/11 13:04:23;;;;;;;9.85;3.90;;;;;;;27.40;44.71;99015.84;4902622;29;20024;-82
2021/08/11 13:06:51;;;;;;;4.50;3.13;;;;;;;27.89;44.59;99006.38;4907061;29;20032;-79
2021/08/11 13:09:28;;;;;;;7.25;3.40;;;;;;;27.96;43.85;99011.22;4901240;29;20044;-79
2021/08/11 13:11:57;;;;;;;8.65;3.30;;;;;;;27.56;46.30;99010.09;4912351;29;20035;-77
2021/08/11 13:14:41;;;;;;;8.20;3.30;;;;;;;27.33;46.56;99009.34;4903167;29;20028;-79
2021/08/11 13:17:06;;;;;;;5.45;3.17;;;;;;;27.21;47.33;99010.38;4903533;29;20032;-80
2021/08/11 13:19:32;;;;;;;7.43;3.28;;;;;;;27.49;47.50;99002.75;4912591;29;20031;-79
2021/08/11 13:21:57;;;;;;;5.43;3.15;;;;;;;27.62;46.83;99014.06;4911959;29;20112;-78
2021/08/11 13:24:25;;;;;;;8.07;3.40;;;;;;;27.75;46.49;99009.38;4903354;29;20506;-82
2021/08/11 13:26:56;;;;;;;5.53;2.73;;;;;;;27.78;47.13;99002.97;4904449;29;20508;-82
2021/08/11 13:29:27;;;;;;;5.32;2.60;;;;;;;28.51;45.65;99006.41;4911191;29;20275;-82
2021/08/11 13:31:53;;;;;;;7.88;3.13;;;;;;;28.09;45.50;98996.69;4904608;29;20033;-82
2021/08/11 13:34:20;;;;;;;4.72;3.28;;;;;;;27.86;46.23;98996.00;4900937;29;20020;-75
2021/08/11 13:36:45;;;;;;;6.75;3.00;;;;;;;27.72;44.54;98992.84;4905817;29;20137;-75
2021/08/11 13:39:11;;;;;;;8.45;3.10;;;;;;;27.81;44.45;98994.72;4913701;29;20398;-76
2021/08/11 13:41:36;;;;;;;8.32;3.13;;;;;;;27.07;46.16;99002.66;4849846;29;20553;-83
2021/08/11 13:44:01;;;;;;;6.40;3.28;;;;;;;27.75;45.36;98998.72;4914665;29;20036;-82
2021/08/11 13:46:28;;;;;;;3.90;3.20;;;;;;;27.76;44.44;98992.47;4915255;29;20115;-79
2021/08/11 13:48:53;;;;;;;4.75;2.90;;;;;;;27.67;45.84;98990.53;4904881;29;20115;-79
2021/08/11 13:51:20;;;;;;;7.07;3.08;;;;;;;28.03;44.82;98994.53;4906246;29;20108;-82
2021/08/11 13:53:46;;;;;;;10.07;2.88;;;;;;;27.72;45.43;99001.69;4905783;29;20419;-82
2021/08/11 13:56:13;;;;;;;4.50;2.88;;;;;;;28.67;42.68;98996.06;4910392;29;20081;-82
2021/08/11 13:58:38;;;;;;;5.55;2.90;;;;;;;28.78;42.15;98998.63;4905173;29;20039;-75
2021/08/11 14:01:04;;;;;;;5.40;2.95;;;;;;;29.02;42.88;98990.28;4901955;29;20501;-79
2021/08/11 14:03:29;;;;;;;4.82;3.05;;;;;;;29.05;41.67;98999.81;4904026;29;20095;-79
2021/08/11 14:05:54;;;;;;;10.60;3.28;;;;;;;28.55;42.66;99002.50;4899123;29;20099;-82
2021/08/11 14:08:20;;;;;;;5.78;3.97;;;;;;;29.16;42.04;98997.03;4909104;29;20021;-79
2021/08/11 14:10:45;;;;;;;8.32;2.75;;;;;;;28.88;41.45;98988.81;4905785;29;20534;-82
2021/08/11 14:13:10;;;;;;;5.35;2.35;;;;;;;29.20;41.74;98982.38;4902176;29;20542;-81
2021/08/11 14:15:35;;;;;;;3.10;2.80;;;;;;;29.13;41.85;98981.28;4911896;29;20164;-76
2021/08/11 14:18:01;;;;;;;5.15;2.50;;;;;;;28.43;42.69;98983.97;4899715;29;20032;-79
2021/08/11 14:20:26;;;;;;;5.18;2.83;;;;;;;28.77;41.56;98986.28;4915083;29;20020;-80
2021/08/11 14:22:51;;;;;;;3.55;2.53;;;;;;;29.12;41.48;98979.59;4903089;29;20032;-76
2021/08/11 14:25:17;;;;;;;10.10;2.83;;;;;;;29.12;42.52;98974.25;4909818;29;20043;-76
2021/08/11 14:27:42;;;;;;;4.35;2.55;;;;;;;29.26;40.27;98979.19;4901719;29;20036;-76
2021/08/11 14:30:09;;;;;;;5.82;2.65;;;;;;;29.06;42.25;98981.00;4914141;29;20397;-79
2021/08/11 14:32:34;;;;;;;3.72;2.42;;;;;;;29.41;40.69;98968.91;4907411;29;20039;-79
2021/08/11 14:34:59;;;;;;;7.38;2.70;;;;;;;29.32;42.31;98975.09;4899622;29;20029;-79
2021/08/11 14:37:25;;;;;;;4.35;2.90;;;;;;;29.43;40.80;98967.75;4914344;29;20035;-79
2021/08/11 14:39:50;;;;;;;4.05;2.95;;;;;;;28.41;42.87;98971.72;4902787;29;20486;-75
2021/08/11 14:42:15;;;;;;;4.60;2.70;;;;;;;28.88;41.09;98967.47;4909231;29;20024;-70
2021/08/11 14:44:41;;;;;;;7.57;2.63;;;;;;;27.95;43.75;98977.53;4907703;29;20285;-76
2021/08/11 14:47:06;;;;;;;7.00;2.85;;;;;;;27.93;44.49;98975.00;4910024;29;20386;-74
2021/08/11 14:49:32;;;;;;;5.85;2.70;;;;;;;27.64;45.23;98965.00;4901251;29;20062;-71
2021/08/11 14:51:57;;;;;;;3.33;2.85;;;;;;;27.15;45.62;98985.13;4906866;29;20589;-74
2021/08/11 14:54:22;;;;;;;4.05;2.70;;;;;;;27.45;46.52;98980.00;4911818;29;20063;-74
2021/08/11 14:56:48;;;;;;;10.73;3.08;;;;;;;28.35;43.22;98975.78;4907155;29;20257;-74
2021/08/11 14:59:13;;;;;;;9.50;2.78;;;;;;;28.08;43.16;98970.16;4912271;29;20032;-74
2021/08/11 15:01:38;;;;;;;5.97;3.03;;;;;;;28.08;43.17;98972.84;4902550;29;20044;-81
2021/08/11 15:04:04;;;;;;;6.20;2.50;;;;;;;27.68;43.88;98982.41;4906153;29;20020;-71
2021/08/11 15:06:29;;;;;;;4.22;3.47;;;;;;;28.29;42.01;98981.63;4906601;29;20095;-81
2021/08/11 15:08:55;;;;;;;3.05;2.78;;;;;;;28.12;43.74;98985.75;4907403;29;20044;-74
2021/08/11 15:11:20;;;;;;;3.55;2.70;;;;;;;28.24;41.87;98973.19;4913006;29;20474;-74
2021/08/11 15:13:45;;;;;;;3.25;2.70;;;;;;;29.09;41.97;98969.19;4902248;29;20028;-74
2021/08/11 15:16:11;;;;;;;7.60;2.83;;;;;;;29.24;41.12;98972.28;4913000;29;20048;-81
2021/08/11 15:18:37;;;;;;;2.85;2.40;;;;;;;28.90;41.51;98970.81;4907204;29;20032;-71
2021/08/11 15:21:02;;;;;;;3.53;2.75;;;;;;;29.15;41.33;98972.13;4917703;29;20393;-74
2021/08/11 15:23:27;;;;;;;5.53;2.85;;;;;;;29.44;40.41;98958.75;4902580;29;20113;-74
2021/08/11 15:25:53;;;;;;;4.18;3.15;;;;;;;29.44;39.70;98969.44;4914463;29;20095;-74
2021/08/11 15:28:18;;;;;;;2.85;2.63;;;;;;;29.55;39.92;98964.97;4904608;29;20039;-74
2021/08/11 15:30:43;;;;;;;4.03;3.63;;;;;;;29.25;39.46;98961.44;4908261;29;20036;-74
2021/08/11 15:33:09;;;;;;;4.78;3.13;;;;;;;28.62;41.01;98966.28;4906185;29;20017;-74
2021/08/11 15:35:34;;;;;;;6.63;3.28;;;;;;;28.18;42.07;98963.91;4897633;29;20545;-81
2021/08/11 15:38:00;;;;;;;6.05;3.30;;;;;;;27.83;42.60;98969.63;4912018;29;20039;-74
2021/08/11 15:40:25;;;;;;;6.30;3.03;;;;;;;28.06;42.01;98969.47;4902149;29;20039;-71
2021/08/11 15:42:50;;;;;;;5.18;3.15;;;;;;;27.65;42.99;98971.16;4907728;29;20024;-74
2021/08/11 15:45:16;;;;;;;7.22;3.63;;;;;;;27.71;43.28;98965.38;4902405;29;20025;-74
2021/08/11 15:47:42;;;;;;;6.20;3.17;;;;;;;28.11;41.43;98964.59;4912950;29;20032;-79
2021/08/11 15:50:08;;;;;;;5.93;3.10;;;;;;;27.64;42.92;98964.16;4902501;29;20083;-80
2021/08/11 15:52:34;;;;;;;8.70;2.97;;;;;;;27.58;43.42;98964.69;4908397;29;20141;-71